Terminal Aerodrome Forecast
Issued by NWS Shreveport, LA

Home | Current Version | Previous Version | Text Only | Print | Product List | Glossary On
Versions: 1 2 3 4 5 6 7 8 9 10 11 12 13 14 15 16 17 18 19 20 21
899
FTUS44 KSHV 271759 AAC
TAFLFK
TAF AMD
KLFK 271759Z 2718/2818 21008KT P6SM BKN040
      TEMPO 2718/2720 2SM +TSRA BR SCT030CB
     FM272000 20009KT P6SM VCTS BKN045CB
     FM280100 16004KT P6SM FEW050 BKN150 BKN250
     FM280600 17004KT P6SM BKN150 BKN250
      TEMPO 2807/2810 BKN150 BKN250
     FM281100 17003KT 5SM BR BKN150 BKN250
     FM281300 16004KT 6SM HZ BKN250=

USA.gov is the U.S. government's official web portal to all federal, state and local government web resources and services.